createdAt,value
2023-04-28T00:00:00.045Z,99602.81
2023-04-28T00:01:26.658Z,99615.75
2023-04-28T00:03:08.978Z,99613.94
2023-04-28T00:05:08.671Z,99616.09
2023-04-28T00:06:37.257Z,99598.81
2023-04-28T00:08:07.298Z,99615.03
2023-04-28T00:09:20.123Z,99615.47
2023-04-28T00:10:22.852Z,99614.69
2023-04-28T00:12:00.991Z,99580.28
2023-04-28T00:13:02.414Z,99601.22
2023-04-28T00:14:04.014Z,99602.47
2023-04-28T00:15:24.592Z,99612.16
2023-04-28T00:17:31.514Z,99615.25
2023-04-28T00:18:45.940Z,99591.47
2023-04-28T00:20:38.120Z,99621.19
2023-04-28T00:22:17.164Z,99617.31
2023-04-28T00:23:24.593Z,99587.00
2023-04-28T00:25:11.510Z,99608.31
2023-04-28T00:26:33.237Z,99601.53
2023-04-28T00:28:16.115Z,99613.41
2023-04-28T00:29:45.957Z,99608.94
2023-04-28T00:31:28.372Z,99601.16
2023-04-28T00:32:58.844Z,99601.91
2023-04-28T00:34:23.120Z,99584.91
2023-04-28T00:36:03.140Z,99587.81
2023-04-28T00:38:10.325Z,99583.22
2023-04-28T00:40:07.065Z,99579.09
2023-04-28T00:42:06.352Z,99572.53
2023-04-28T00:43:11.918Z,99576.00
2023-04-28T00:44:31.299Z,99569.63
2023-04-28T00:45:57.841Z,99574.09
2023-04-28T00:47:57.786Z,99578.28
2023-04-28T00:49:47.944Z,99580.69
2023-04-28T00:51:08.642Z,99580.75
2023-04-28T00:52:50.292Z,99566.22
2023-04-28T00:54:30.226Z,99580.66
2023-04-28T00:55:37.297Z,99562.66
2023-04-28T00:57:02.931Z,99569.44
2023-04-28T00:58:33.662Z,99571.25
2023-04-28T00:59:57.784Z,99563.47
2023-04-28T01:01:16.957Z,99562.09
2023-04-28T01:02:38.659Z,99558.44
2023-04-28T01:04:17.480Z,99562.72
2023-04-28T01:05:04.498Z,99553.09
2023-04-28T01:07:04.341Z,99555.78
2023-04-28T01:08:50.995Z,99555.97
2023-04-28T01:10:22.123Z,99549.44
2023-04-28T01:11:46.957Z,99547.34
2023-04-28T01:13:11.158Z,99548.72
2023-04-28T01:14:23.741Z,99540.88
2023-04-28T01:15:51.838Z,99543.50
2023-04-28T01:17:12.143Z,99524.84
2023-04-28T01:18:21.072Z,99533.47
2023-04-28T01:19:42.792Z,99530.25
2023-04-28T01:21:40.667Z,99528.03
2023-04-28T01:23:05.965Z,99505.72
2023-04-28T01:24:35.587Z,99527.41
2023-04-28T01:26:02.130Z,99506.84
2023-04-28T01:29:19.052Z,99525.88
2023-04-28T01:30:38.454Z,99518.09
2023-04-28T01:32:18.515Z,99504.72
2023-04-28T01:33:37.401Z,99509.03
2023-04-28T01:34:44.236Z,99504.34
2023-04-28T01:36:29.973Z,99506.38
2023-04-28T01:38:00.730Z,99496.06
2023-04-28T01:39:41.655Z,99510.50
2023-04-28T01:40:49.116Z,99505.56
2023-04-28T01:42:09.575Z,99507.84
2023-04-28T01:43:41.980Z,99501.53
2023-04-28T01:45:06.989Z,99494.00
2023-04-28T01:46:29.147Z,99498.53
2023-04-28T01:47:59.087Z,99485.88
2023-04-28T01:49:20.349Z,99497.84
2023-04-28T01:50:55.854Z,99491.94
2023-04-28T01:52:41.560Z,99507.94
2023-04-28T01:54:04.090Z,99498.75
2023-04-28T01:55:27.771Z,99516.16
2023-04-28T01:56:55.869Z,99514.50
2023-04-28T01:58:09.596Z,99513.88
2023-04-28T02:00:07.214Z,99516.75
2023-04-28T02:01:39.572Z,99516.34
2023-04-28T02:03:17.748Z,99518.63
2023-04-28T02:04:23.387Z,99517.59
2023-04-28T02:05:29.949Z,99494.72
2023-04-28T02:07:01.049Z,99512.53
2023-04-28T02:08:22.831Z,99511.72
2023-04-28T02:09:49.476Z,99507.81
2023-04-28T02:11:18.079Z,99502.44
2023-04-28T02:12:22.804Z,99502.63
2023-04-28T02:14:03.069Z,99498.50
2023-04-28T02:16:51.301Z,99488.56
2023-04-28T02:18:15.512Z,99499.41
2023-04-28T02:20:14.165Z,99515.97
2023-04-28T02:21:27.534Z,99515.00
2023-04-28T02:22:35.127Z,99517.50
2023-04-28T02:24:32.106Z,99525.69
2023-04-28T02:25:52.375Z,99491.94
2023-04-28T02:27:14.659Z,99514.31
2023-04-28T02:28:37.765Z,99506.53
2023-04-28T02:29:58.963Z,99504.31
2023-04-28T02:31:49.287Z,99507.38
2023-04-28T02:33:47.304Z,99501.59
2023-04-28T02:35:31.764Z,99501.78
2023-04-28T02:37:09.702Z,99511.09
2023-04-28T02:38:28.994Z,99511.88
2023-04-28T02:40:10.071Z,99524.13
2023-04-28T02:41:24.003Z,99521.28
2023-04-28T02:42:44.804Z,99515.16
2023-04-28T02:43:46.364Z,99509.03
2023-04-28T02:45:05.917Z,99507.78
2023-04-28T02:46:25.019Z,99489.63
2023-04-28T02:47:26.894Z,99475.22
2023-04-28T02:49:15.839Z,99494.50
2023-04-28T02:50:20.203Z,99487.28
2023-04-28T02:51:44.394Z,99502.63
2023-04-28T02:52:44.919Z,99499.09
2023-04-28T02:54:29.188Z,99513.41
2023-04-28T02:56:40.748Z,99525.03
2023-04-28T02:58:26.244Z,99517.75
2023-04-28T03:00:04.299Z,99519.25
2023-04-28T03:02:04.345Z,99507.66
2023-04-28T03:03:56.215Z,99508.72
2023-04-28T03:05:15.323Z,99504.88
2023-04-28T03:06:30.599Z,99494.09
2023-04-28T03:08:21.757Z,99500.22
2023-04-28T03:09:43.482Z,99493.72
2023-04-28T03:11:31.474Z,99490.66
2023-04-28T03:12:50.899Z,99486.00
2023-04-28T03:13:52.247Z,99469.38
2023-04-28T03:15:19.007Z,99483.88
2023-04-28T03:16:53.608Z,99475.69
2023-04-28T03:18:16.050Z,99483.28
2023-04-28T03:20:01.991Z,99473.66
2023-04-28T03:20:44.624Z,99460.16
2023-04-28T03:21:56.217Z,99459.72
2023-04-28T03:23:04.623Z,99465.47
2023-04-28T03:24:11.483Z,99448.66
2023-04-28T03:25:36.718Z,99458.50
2023-04-28T03:26:47.785Z,99405.25
2023-04-28T03:27:55.018Z,99442.16
2023-04-28T03:29:07.446Z,99451.94
2023-04-28T03:30:47.797Z,99449.13
2023-04-28T03:31:52.807Z,99437.69
2023-04-28T03:33:12.093Z,99445.69
2023-04-28T03:34:40.837Z,99418.31
2023-04-28T03:36:01.042Z,99406.44
2023-04-28T03:37:30.513Z,99423.06
2023-04-28T03:38:22.508Z,99432.44
2023-04-28T03:39:29.160Z,99450.19
2023-04-28T03:40:33.735Z,99440.75
2023-04-28T03:42:37.138Z,99449.09
2023-04-28T03:44:40.507Z,99449.91
2023-04-28T03:46:29.489Z,99443.03
2023-04-28T03:48:36.305Z,99433.28
2023-04-28T03:49:45.539Z,99420.63
2023-04-28T03:50:57.296Z,99424.94
2023-04-28T03:52:38.550Z,99423.25
2023-04-28T03:54:21.776Z,99445.44
2023-04-28T03:55:51.325Z,99431.91
2023-04-28T03:56:40.054Z,99446.38
2023-04-28T03:58:22.449Z,99458.00
2023-04-28T03:59:44.699Z,99458.38
2023-04-28T04:01:41.650Z,99453.06
2023-04-28T04:03:17.742Z,99447.78
2023-04-28T04:04:48.053Z,99456.25
2023-04-28T04:06:01.056Z,99459.72
2023-04-28T04:07:29.791Z,99450.41
2023-04-28T04:08:35.466Z,99451.44
2023-04-28T04:10:20.283Z,99446.38
2023-04-28T04:11:42.187Z,99446.56
2023-04-28T04:13:07.745Z,99448.22
2023-04-28T04:14:42.017Z,99447.00
2023-04-28T04:16:02.174Z,99457.00
2023-04-28T04:17:45.100Z,99450.03
2023-04-28T04:18:50.511Z,99470.22
2023-04-28T04:19:59.720Z,99475.88
2023-04-28T04:21:38.195Z,99463.38
2023-04-28T04:23:22.377Z,99485.44
2023-04-28T04:24:44.193Z,99463.56
2023-04-28T04:26:06.087Z,99462.44
2023-04-28T04:27:35.719Z,99471.91
2023-04-28T04:29:22.648Z,99461.16
2023-04-28T04:30:43.236Z,99465.09
2023-04-28T04:32:24.395Z,99451.63
2023-04-28T04:33:55.222Z,99446.50
2023-04-28T04:35:57.922Z,99449.38
2023-04-28T04:37:39.611Z,99436.69
2023-04-28T04:38:33.342Z,99440.94
2023-04-28T04:40:02.009Z,99444.72
2023-04-28T04:41:03.304Z,99453.72
2023-04-28T04:42:24.965Z,99451.25
2023-04-28T04:44:09.510Z,99451.47
2023-04-28T04:45:20.069Z,99449.41
2023-04-28T04:46:53.663Z,99447.59
2023-04-28T04:48:17.219Z,99445.19
2023-04-28T04:49:56.822Z,99442.16
2023-04-28T04:51:17.910Z,99442.97
2023-04-28T04:52:21.591Z,99445.81
2023-04-28T04:53:46.420Z,99446.84
2023-04-28T04:55:18.506Z,99457.09
2023-04-28T04:57:15.615Z,99455.47
2023-04-28T04:59:13.044Z,99464.84
2023-04-28T05:00:58.834Z,99451.41
2023-04-28T05:02:57.410Z,99452.41
2023-04-28T05:04:34.886Z,99444.84
2023-04-28T05:06:10.247Z,99430.31
2023-04-28T05:07:29.771Z,99438.75
2023-04-28T05:08:33.428Z,99442.00
2023-04-28T05:10:01.377Z,99451.41
2023-04-28T05:11:07.247Z,99435.66
2023-04-28T05:12:50.337Z,99442.81
2023-04-28T05:14:13.077Z,99431.19
2023-04-28T05:15:54.136Z,99436.06
2023-04-28T05:17:21.185Z,99436.44
2023-04-28T05:18:44.693Z,99433.78
2023-04-28T05:20:45.067Z,99439.09
2023-04-28T05:22:07.119Z,99434.63
2023-04-28T05:24:17.815Z,99440.34
2023-04-28T05:25:58.592Z,99443.19
2023-04-28T05:27:39.432Z,99445.03
2023-04-28T05:29:40.895Z,99439.72
2023-04-28T05:31:13.900Z,99444.22
2023-04-28T05:33:06.190Z,99441.56
2023-04-28T05:34:45.892Z,99453.41
2023-04-28T05:35:47.082Z,99442.78
2023-04-28T05:37:10.639Z,99448.09
2023-04-28T05:38:31.769Z,99450.16
2023-04-28T05:40:12.782Z,99451.78
2023-04-28T05:42:11.090Z,99456.09
2023-04-28T05:43:31.863Z,99455.69
2023-04-28T05:44:53.537Z,99449.97
2023-04-28T05:46:34.753Z,99459.16
2023-04-28T05:48:14.766Z,99456.94
2023-04-28T05:50:03.260Z,99449.63
2023-04-28T05:51:42.708Z,99441.03
2023-04-28T05:53:08.664Z,99444.50
2023-04-28T05:54:55.691Z,99446.72
2023-04-28T05:58:36.475Z,99455.31
2023-04-28T05:59:48.323Z,99454.47
2023-04-28T06:01:32.158Z,99455.91
2023-04-28T06:03:32.118Z,99460.44
2023-04-28T06:04:54.696Z,99457.78
2023-04-28T06:06:38.376Z,99450.63
2023-04-28T06:07:57.786Z,99458.19
2023-04-28T06:09:26.846Z,99452.66
2023-04-28T06:10:49.192Z,99459.16
2023-04-28T06:11:56.106Z,99432.97
2023-04-28T06:13:15.484Z,99451.22
2023-04-28T06:14:32.869Z,99454.25
2023-04-28T06:16:02.075Z,99449.56
2023-04-28T06:17:05.277Z,99457.53
2023-04-28T06:18:29.542Z,99442.63
2023-04-28T06:19:53.437Z,99448.31
2023-04-28T06:21:18.460Z,99452.19
2023-04-28T06:22:43.625Z,99447.31
2023-04-28T06:24:21.759Z,99453.63
2023-04-28T06:25:44.189Z,99460.75
2023-04-28T06:27:03.350Z,99463.78
2023-04-28T06:28:33.024Z,99466.44
2023-04-28T06:29:56.122Z,99456.06
2023-04-28T06:31:02.376Z,99454.22
2023-04-28T06:32:27.132Z,99431.38
2023-04-28T06:33:48.169Z,99442.44
2023-04-28T06:35:11.186Z,99451.00
2023-04-28T06:36:18.256Z,99445.69
2023-04-28T06:37:43.296Z,99437.94
2023-04-28T06:39:04.882Z,99453.09
2023-04-28T06:40:19.058Z,99454.09
2023-04-28T06:41:36.689Z,99447.78
2023-04-28T06:43:28.850Z,99453.91
2023-04-28T06:45:06.345Z,99441.59
2023-04-28T06:46:47.100Z,99471.84
2023-04-28T06:48:25.109Z,99473.66
2023-04-28T06:50:23.877Z,99475.09
2023-04-28T06:52:02.179Z,99471.47
2023-04-28T06:53:42.081Z,99476.97
2023-04-28T06:54:47.114Z,99478.81
2023-04-28T06:56:46.835Z,99479.66
2023-04-28T06:58:05.902Z,99481.72
2023-04-28T06:59:18.704Z,99474.38
2023-04-28T07:00:57.014Z,99463.75
2023-04-28T07:02:04.068Z,99478.66
2023-04-28T07:03:07.611Z,99473.53
2023-04-28T07:04:49.957Z,99473.78
2023-04-28T07:06:32.096Z,99460.66
2023-04-28T07:07:57.922Z,99460.47
2023-04-28T07:09:43.921Z,99449.81
2023-04-28T07:11:35.544Z,99468.44
2023-04-28T07:13:13.433Z,99470.88
2023-04-28T07:14:38.716Z,99467.19
2023-04-28T07:15:53.684Z,99474.13
2023-04-28T07:17:01.683Z,99468.22
2023-04-28T07:19:05.992Z,99468.63
2023-04-28T07:20:46.572Z,99463.53
2023-04-28T07:22:27.620Z,99455.13
2023-04-28T07:24:01.185Z,99456.34
2023-04-28T07:25:09.027Z,99456.78
2023-04-28T07:26:31.070Z,99462.31
2023-04-28T07:27:43.203Z,99452.06
2023-04-28T07:29:24.101Z,99463.13
2023-04-28T07:30:59.468Z,99437.16
2023-04-28T07:32:21.684Z,99451.03
2023-04-28T07:33:27.196Z,99442.47
2023-04-28T07:34:57.306Z,99439.16
2023-04-28T07:36:35.633Z,99439.16
2023-04-28T07:37:55.955Z,99433.00
2023-04-28T07:39:03.241Z,99427.25
2023-04-28T07:40:28.263Z,99427.06
2023-04-28T07:42:28.046Z,99424.84
2023-04-28T07:43:43.723Z,99428.34
2023-04-28T07:45:07.444Z,99434.06
2023-04-28T07:46:28.848Z,99432.44
2023-04-28T07:47:50.762Z,99442.88
2023-04-28T07:49:09.724Z,99445.34
2023-04-28T07:50:32.963Z,99454.94
2023-04-28T07:51:54.192Z,99456.16
2023-04-28T07:53:26.163Z,99460.25
2023-04-28T07:55:23.538Z,99463.28
2023-04-28T07:57:07.865Z,99471.50
2023-04-28T07:58:14.868Z,99471.91
2023-04-28T07:59:03.178Z,99472.91
2023-04-28T08:00:27.929Z,99460.25
2023-04-28T08:01:46.754Z,99486.63
2023-04-28T08:02:57.348Z,99481.91
2023-04-28T08:04:23.037Z,99485.00
2023-04-28T08:06:24.740Z,99482.53
2023-04-28T08:07:49.246Z,99482.34
2023-04-28T08:09:26.901Z,99476.19
2023-04-28T08:10:48.850Z,99480.50
2023-04-28T08:12:32.052Z,99473.31
2023-04-28T08:14:10.548Z,99469.84
2023-04-28T08:15:39.593Z,99471.41
2023-04-28T08:16:58.785Z,99462.19
2023-04-28T08:18:23.714Z,99464.44
2023-04-28T08:19:52.829Z,99465.69
2023-04-28T08:21:11.865Z,99464.28
2023-04-28T08:22:18.191Z,99455.88
2023-04-28T08:23:23.684Z,99464.72
2023-04-28T08:26:03.358Z,99477.00
2023-04-28T08:27:29.197Z,99478.41
2023-04-28T08:28:38.042Z,99480.88
2023-04-28T08:29:41.521Z,99481.31
2023-04-28T08:30:41.542Z,99484.81
2023-04-28T08:31:42.142Z,99477.22
2023-04-28T08:33:01.381Z,99477.22
2023-04-28T08:34:20.442Z,99460.88
2023-04-28T08:35:39.579Z,99470.28
2023-04-28T08:36:40.061Z,99454.72
2023-04-28T08:37:59.729Z,99462.50
2023-04-28T08:39:20.644Z,99454.72
2023-04-28T08:40:58.900Z,99448.16
2023-04-28T08:42:37.477Z,99443.84
2023-04-28T08:43:21.543Z,99446.94
2023-04-28T08:44:23.581Z,99430.97
2023-04-28T08:46:01.654Z,99442.81
2023-04-28T08:47:40.947Z,99438.28
2023-04-28T08:48:42.848Z,99451.59
2023-04-28T08:50:02.198Z,99447.53
2023-04-28T08:51:42.196Z,99453.44
2023-04-28T08:53:20.566Z,99441.75
2023-04-28T08:54:40.957Z,99455.31
2023-04-28T08:56:18.962Z,99460.22
2023-04-28T08:57:58.034Z,99464.72
2023-04-28T08:59:18.289Z,99460.78
2023-04-28T09:00:18.742Z,99458.13
2023-04-28T09:01:37.788Z,99452.41
2023-04-28T09:03:35.336Z,99457.03
2023-04-28T09:04:55.731Z,99465.63
2023-04-28T09:05:56.220Z,99472.59
2023-04-28T09:07:14.841Z,99473.59
2023-04-28T09:08:52.358Z,99472.38
2023-04-28T09:10:36.148Z,99468.47
2023-04-28T09:12:14.043Z,99457.78
2023-04-28T09:13:33.503Z,99459.31
2023-04-28T09:14:54.593Z,99448.34
2023-04-28T09:16:14.041Z,99457.41
2023-04-28T09:17:15.207Z,99462.75
2023-04-28T09:18:53.065Z,99456.59
2023-04-28T09:19:54.020Z,99450.94
2023-04-28T09:20:36.459Z,99451.16
2023-04-28T09:22:26.884Z,99466.31
2023-04-28T09:24:23.840Z,99452.81
2023-04-28T09:26:02.054Z,99461.41
2023-04-28T09:27:10.720Z,99447.44
2023-04-28T09:28:49.184Z,99447.81
2023-04-28T09:30:09.944Z,99439.25
2023-04-28T09:31:48.098Z,99442.75
2023-04-28T09:33:41.666Z,99442.75
2023-04-28T09:35:11.027Z,99436.78
2023-04-28T09:36:30.139Z,99442.16
2023-04-28T09:37:31.750Z,99441.69
2023-04-28T09:38:32.387Z,99458.88
2023-04-28T09:40:10.460Z,99452.28
2023-04-28T09:41:29.375Z,99449.81
2023-04-28T09:43:25.997Z,99441.13
2023-04-28T09:44:19.207Z,99442.13
2023-04-28T09:46:16.138Z,99443.50
2023-04-28T09:47:59.884Z,99443.50
2023-04-28T09:49:02.888Z,99421.50
2023-04-28T09:50:59.867Z,99445.16
2023-04-28T09:52:50.125Z,99446.38
2023-04-28T09:54:28.740Z,99446.44
2023-04-28T09:55:48.367Z,99448.69
2023-04-28T09:57:07.408Z,99443.97
2023-04-28T09:57:50.253Z,99437.81
2023-04-28T09:58:35.196Z,99433.25
2023-04-28T10:00:31.960Z,99441.16
2023-04-28T10:01:32.972Z,99427.81
2023-04-28T10:02:36.227Z,99435.75
2023-04-28T10:04:15.247Z,99434.09
2023-04-28T10:05:34.834Z,99435.53
2023-04-28T10:07:12.434Z,99430.59
2023-04-28T10:07:55.396Z,99421.38
2023-04-28T10:09:14.777Z,99430.94
2023-04-28T10:09:58.390Z,99425.19
2023-04-28T10:10:59.335Z,99415.75
2023-04-28T10:11:59.777Z,99431.13
2023-04-28T10:13:19.424Z,99428.16
2023-04-28T10:14:38.132Z,99424.03
2023-04-28T10:15:58.485Z,99424.25
2023-04-28T10:16:59.721Z,99418.09
2023-04-28T10:18:37.387Z,99424.66
2023-04-28T10:20:15.445Z,99416.03
2023-04-28T10:21:18.811Z,99400.31
2023-04-28T10:23:02.463Z,99424.25
2023-04-28T10:24:27.158Z,99421.03
2023-04-28T10:26:05.162Z,99424.34
2023-04-28T10:27:23.995Z,99429.69
2023-04-28T10:28:43.632Z,99429.25
2023-04-28T10:30:34.800Z,99428.63
2023-04-28T10:32:12.950Z,99426.31
2023-04-28T10:33:51.013Z,99435.03
2023-04-28T10:35:29.302Z,99433.91
2023-04-28T10:37:06.746Z,99438.69
2023-04-28T10:38:44.229Z,99432.75
2023-04-28T10:39:44.341Z,99425.81
2023-04-28T10:41:13.514Z,99449.34
2023-04-28T10:42:51.394Z,99449.16
2023-04-28T10:44:46.951Z,99447.50
2023-04-28T10:46:24.797Z,99447.34
2023-04-28T10:47:44.002Z,99452.31
2023-04-28T10:48:46.665Z,99450.28
2023-04-28T10:50:38.392Z,99451.69
2023-04-28T10:51:40.027Z,99445.75
2023-04-28T10:53:36.492Z,99446.75
2023-04-28T10:54:37.830Z,99451.22
2023-04-28T10:55:54.449Z,99444.03
2023-04-28T10:57:30.178Z,99448.53
2023-04-28T10:58:41.748Z,99454.47
2023-04-28T10:59:28.391Z,99451.34
2023-04-28T11:00:54.549Z,99448.47
2023-04-28T11:01:54.870Z,99446.03
2023-04-28T11:02:56.641Z,99438.09
2023-04-28T11:04:18.172Z,99439.16
2023-04-28T11:05:19.321Z,99444.28
2023-04-28T11:06:57.376Z,99440.38
2023-04-28T11:08:16.502Z,99443.00
2023-04-28T11:09:34.884Z,99441.06
2023-04-28T11:10:35.395Z,99442.28
2023-04-28T11:12:13.331Z,99431.09
2023-04-28T11:13:47.617Z,99417.38
2023-04-28T11:14:48.317Z,99417.25
2023-04-28T11:15:48.945Z,99408.41
2023-04-28T11:17:27.401Z,99420.13
2023-04-28T11:18:46.850Z,99416.94
2023-04-28T11:19:48.714Z,99419.59
2023-04-28T11:20:49.167Z,99423.31
2023-04-28T11:21:51.170Z,99424.78
2023-04-28T11:23:30.388Z,99421.31
2023-04-28T11:25:27.522Z,99421.09
2023-04-28T11:26:46.881Z,99422.19
2023-04-28T11:28:07.447Z,99421.44
2023-04-28T11:29:08.677Z,99427.28
2023-04-28T11:30:46.649Z,99416.91
2023-04-28T11:33:25.698Z,99416.41
2023-04-28T11:35:06.532Z,99415.09
2023-04-28T11:36:45.694Z,99407.31
2023-04-28T11:38:23.695Z,99404.28
2023-04-28T11:39:08.002Z,99403.59
2023-04-28T11:40:46.111Z,99404.03
2023-04-28T11:41:46.845Z,99395.19
2023-04-28T11:42:29.350Z,99400.09
2023-04-28T11:44:26.184Z,99398.78
2023-04-28T11:46:03.819Z,99396.69
2023-04-28T11:47:07.537Z,99407.53
2023-04-28T11:48:39.685Z,99411.13
2023-04-28T11:50:01.582Z,99413.13
2023-04-28T11:51:58.579Z,99410.09
2023-04-28T11:53:17.950Z,99406.16
2023-04-28T11:54:18.531Z,99409.19
2023-04-28T11:55:56.238Z,99412.91
2023-04-28T11:57:15.893Z,99414.88
2023-04-28T11:58:54.059Z,99410.47
2023-04-28T11:59:54.499Z,99406.69
2023-04-28T12:00:36.497Z,99406.31
2023-04-28T12:02:15.548Z,99406.31
2023-04-28T12:02:58.440Z,99406.53
2023-04-28T12:03:59.219Z,99409.47
2023-04-28T12:05:24.240Z,99407.50
2023-04-28T12:06:43.317Z,99415.19
2023-04-28T12:08:39.914Z,99417.78
2023-04-28T12:09:25.912Z,99416.59
2023-04-28T12:10:26.417Z,99420.06
2023-04-28T12:11:27.513Z,99402.59
2023-04-28T12:12:53.801Z,99411.66
2023-04-28T12:13:54.577Z,99406.56
2023-04-28T12:14:54.984Z,99419.69
2023-04-28T12:16:32.471Z,99417.47
2023-04-28T12:18:10.131Z,99422.69
2023-04-28T12:19:29.957Z,99430.00
2023-04-28T12:20:51.328Z,99427.78
2023-04-28T12:21:51.562Z,99428.00
2023-04-28T12:23:48.425Z,99423.47
2023-04-28T12:25:08.157Z,99438.03
2023-04-28T12:26:27.010Z,99428.38
2023-04-28T12:28:04.804Z,99436.75
2023-04-28T12:29:58.650Z,99432.69
2023-04-28T12:31:18.271Z,99429.53
2023-04-28T12:32:37.411Z,99442.28
2023-04-28T12:33:46.641Z,99433.31
2023-04-28T12:35:05.736Z,99447.50
2023-04-28T12:36:24.774Z,99449.81
2023-04-28T12:38:03.001Z,99455.50
2023-04-28T12:39:23.049Z,99452.31
2023-04-28T12:40:41.730Z,99443.94
2023-04-28T12:42:02.843Z,99445.59
2023-04-28T12:43:02.975Z,99439.47
2023-04-28T12:44:03.080Z,99443.75
2023-04-28T12:45:22.668Z,99442.16
2023-04-28T12:46:41.637Z,99446.34
2023-04-28T12:48:19.345Z,99447.81
2023-04-28T12:49:56.681Z,99440.00
2023-04-28T12:51:35.002Z,99431.41
2023-04-28T12:52:37.540Z,99430.91
2023-04-28T12:53:38.201Z,99433.19
2023-04-28T12:54:38.678Z,99423.22
2023-04-28T12:56:16.410Z,99422.16
2023-04-28T12:57:54.876Z,99412.78
2023-04-28T12:58:55.490Z,99401.53
2023-04-28T13:00:21.099Z,99407.16
2023-04-28T13:01:59.016Z,99399.16
2023-04-28T13:03:18.509Z,99382.72
2023-04-28T13:04:56.487Z,99371.19
2023-04-28T13:05:56.788Z,99370.94
2023-04-28T13:07:34.412Z,99370.94
2023-04-28T13:08:53.247Z,99370.94
2023-04-28T13:10:49.602Z,99368.13
2023-04-28T13:12:09.124Z,99370.53
2023-04-28T13:14:05.826Z,99364.13
2023-04-28T13:15:43.385Z,99363.81
2023-04-28T13:16:43.644Z,99362.28
2023-04-28T13:18:02.784Z,99359.06
2023-04-28T13:19:41.434Z,99345.41
2023-04-28T13:20:23.277Z,99356.56
2023-04-28T13:21:43.378Z,99349.31
2023-04-28T13:23:39.946Z,99346.63
2023-04-28T13:25:18.178Z,99336.06
2023-04-28T13:26:18.603Z,99328.91
2023-04-28T13:27:56.845Z,99335.34
2023-04-28T13:28:57.354Z,99339.06
2023-04-28T13:30:16.344Z,99335.72
2023-04-28T13:31:16.526Z,99318.66
2023-04-28T13:32:35.738Z,99315.66
2023-04-28T13:33:36.090Z,99322.50
2023-04-28T13:34:38.043Z,99332.31
2023-04-28T13:35:57.170Z,99322.84
2023-04-28T13:36:57.672Z,99329.69
2023-04-28T13:38:17.324Z,99323.38
2023-04-28T13:39:17.536Z,99330.88
2023-04-28T13:40:55.617Z,99327.88
2023-04-28T13:42:33.328Z,99327.06
2023-04-28T13:44:11.564Z,99323.53
2023-04-28T13:45:30.585Z,99322.84
2023-04-28T13:47:20.093Z,99324.81
2023-04-28T13:48:46.493Z,99315.00
2023-04-28T13:50:06.584Z,99318.75
2023-04-28T13:51:36.375Z,99315.59
2023-04-28T13:52:59.963Z,99311.19
2023-04-28T13:54:02.617Z,99298.84
2023-04-28T13:55:03.094Z,99302.88
2023-04-28T13:58:00.810Z,99311.28
2023-04-28T13:59:19.670Z,99314.78
2023-04-28T14:00:45.819Z,99317.31
2023-04-28T14:02:09.415Z,99307.53
2023-04-28T14:03:32.030Z,99300.50
2023-04-28T14:05:19.763Z,99312.59
2023-04-28T14:06:57.626Z,99326.56
2023-04-28T14:08:16.866Z,99321.22
2023-04-28T14:09:37.441Z,99317.34
2023-04-28T14:10:19.244Z,99317.72
2023-04-28T14:11:19.453Z,99321.16
2023-04-28T14:12:02.372Z,99313.00
2023-04-28T14:12:44.158Z,99326.16
2023-04-28T14:14:22.198Z,99327.38
2023-04-28T14:15:51.327Z,99323.22
2023-04-28T14:17:35.588Z,99331.94
2023-04-28T14:18:55.629Z,99322.50
2023-04-28T14:20:32.694Z,99320.72
2023-04-28T14:22:10.600Z,99328.28
2023-04-28T14:23:30.016Z,99314.06
2023-04-28T14:24:49.051Z,99317.47
2023-04-28T14:26:08.091Z,99302.84
2023-04-28T14:27:08.494Z,99309.66
2023-04-28T14:28:46.167Z,99310.88
2023-04-28T14:30:24.158Z,99311.56
2023-04-28T14:31:24.797Z,99312.94
2023-04-28T14:32:25.869Z,99312.69
2023-04-28T14:33:26.528Z,99311.06
2023-04-28T14:34:08.315Z,99311.56
2023-04-28T14:35:45.685Z,99306.34
2023-04-28T14:37:24.049Z,99306.41
2023-04-28T14:38:24.661Z,99307.00
2023-04-28T14:40:02.507Z,99302.13
2023-04-28T14:41:02.805Z,99297.28
2023-04-28T14:42:22.809Z,99300.31
2023-04-28T14:43:42.126Z,99308.59
2023-04-28T14:45:38.647Z,99300.56
2023-04-28T14:47:16.692Z,99297.97
2023-04-28T14:47:58.548Z,99296.69
2023-04-28T14:49:54.924Z,99290.81
2023-04-28T14:51:32.703Z,99298.41
2023-04-28T14:52:33.535Z,99283.44
2023-04-28T14:53:52.754Z,99295.56
2023-04-28T14:55:30.227Z,99303.59
2023-04-28T14:57:08.367Z,99295.09
2023-04-28T14:58:46.711Z,99290.88
2023-04-28T14:59:28.618Z,99291.13
2023-04-28T15:01:06.688Z,99282.84
2023-04-28T15:03:02.763Z,99284.03
2023-04-28T15:04:25.130Z,99287.16
2023-04-28T15:05:44.018Z,99300.00
2023-04-28T15:07:21.819Z,99296.50
2023-04-28T15:09:20.034Z,99295.78
2023-04-28T15:11:00.988Z,99306.72
2023-04-28T15:12:39.223Z,99301.16
2023-04-28T15:14:38.898Z,99299.28
2023-04-28T15:15:40.352Z,99294.28
2023-04-28T15:17:17.941Z,99289.16
2023-04-28T15:18:56.137Z,99288.09
2023-04-28T15:20:34.322Z,99287.63
2023-04-28T15:21:34.605Z,99287.72
2023-04-28T15:22:36.515Z,99294.34
2023-04-28T15:23:55.494Z,99290.25
2023-04-28T15:25:33.673Z,99286.44
2023-04-28T15:26:15.892Z,99281.53
2023-04-28T15:27:35.467Z,99285.03
2023-04-28T15:28:55.063Z,99281.66
2023-04-28T15:30:14.035Z,99287.59
2023-04-28T15:31:51.879Z,99292.22
2023-04-28T15:33:48.270Z,99293.19
2023-04-28T15:35:07.350Z,99298.66
2023-04-28T15:36:26.950Z,99297.53
2023-04-28T15:37:47.692Z,99313.59
2023-04-28T15:39:07.501Z,99329.06
2023-04-28T15:40:46.163Z,99349.81
2023-04-28T15:42:04.945Z,99369.59
2023-04-28T15:43:24.397Z,99364.72
2023-04-28T15:45:02.944Z,99381.53
2023-04-28T15:46:40.709Z,99342.63
2023-04-28T15:48:37.786Z,99327.50
2023-04-28T15:49:58.446Z,99330.28
2023-04-28T15:51:55.183Z,99332.91
2023-04-28T15:53:14.561Z,99335.66
2023-04-28T15:54:52.474Z,99338.03
2023-04-28T15:56:11.799Z,99343.53
2023-04-28T15:57:31.365Z,99350.13
2023-04-28T15:59:09.525Z,99347.72
2023-04-28T16:00:47.177Z,99354.06
2023-04-28T16:02:06.219Z,99338.34
2023-04-28T16:03:47.319Z,99346.56
2023-04-28T16:05:07.318Z,99332.06
2023-04-28T16:05:49.104Z,99346.88
2023-04-28T16:07:08.418Z,99332.25
2023-04-28T16:08:29.307Z,99343.81
2023-04-28T16:09:48.258Z,99340.59
2023-04-28T16:10:48.936Z,99349.63
2023-04-28T16:11:49.117Z,99335.41
2023-04-28T16:13:08.245Z,99357.91
2023-04-28T16:14:46.028Z,99357.19
2023-04-28T16:16:24.957Z,99361.06
2023-04-28T16:18:03.303Z,99362.00
2023-04-28T16:19:03.647Z,99356.94
2023-04-28T16:20:22.790Z,99346.09
2023-04-28T16:22:00.912Z,99352.41
2023-04-28T16:23:01.593Z,99358.84
2023-04-28T16:24:22.333Z,99358.63
2023-04-28T16:25:04.467Z,99357.69
2023-04-28T16:26:24.121Z,99363.38
2023-04-28T16:27:42.719Z,99357.59
2023-04-28T16:29:20.656Z,99369.38
2023-04-28T16:30:39.924Z,99363.97
2023-04-28T16:32:17.830Z,99366.75
2023-04-28T16:33:18.308Z,99360.84
2023-04-28T16:34:56.270Z,99371.06
2023-04-28T16:35:57.920Z,99357.44
2023-04-28T16:36:59.267Z,99362.56
2023-04-28T16:38:18.547Z,99364.41
2023-04-28T16:39:18.433Z,99353.72
2023-04-28T16:40:18.802Z,99351.88
2023-04-28T16:41:37.723Z,99357.47
2023-04-28T16:42:21.861Z,99351.03
2023-04-28T16:44:17.964Z,99321.47
2023-04-28T16:46:14.584Z,99232.88
2023-04-28T16:47:15.519Z,99221.34
2023-04-28T16:49:12.537Z,99213.13